createdAt,value
2018-12-29T00:02:23.116Z,22.80
2018-12-29T00:04:55.107Z,22.20
2018-12-29T00:07:27.020Z,22.87
2018-12-29T00:09:58.917Z,21.70
2018-12-29T00:12:30.797Z,20.97
2018-12-29T00:15:02.685Z,21.97
2018-12-29T00:17:34.590Z,23.12
2018-12-29T00:20:06.551Z,21.65
2018-12-29T00:22:38.453Z,22.87
2018-12-29T00:25:10.668Z,20.80
2018-12-29T00:27:42.555Z,21.07
2018-12-29T00:30:14.463Z,21.25
2018-12-29T00:32:46.413Z,21.62
2018-12-29T00:35:20.612Z,23.57
2018-12-29T00:37:52.513Z,22.75
2018-12-29T00:40:24.404Z,25.02
2018-12-29T00:42:56.373Z,21.42
2018-12-29T00:45:28.258Z,23.77
2018-12-29T00:48:00.131Z,24.05
2018-12-29T00:50:32.012Z,25.20
2018-12-29T00:53:05.970Z,21.97
2018-12-29T00:55:37.880Z,23.52
2018-12-29T00:58:09.750Z,22.30
2018-12-29T01:00:41.920Z,24.55
2018-12-29T01:03:13.797Z,24.55
2018-12-29T01:05:45.693Z,23.38
2018-12-29T01:08:17.583Z,22.67
2018-12-29T01:10:49.473Z,23.52
2018-12-29T01:13:22.955Z,21.82
2018-12-29T01:15:54.882Z,22.17
2018-12-29T01:18:26.757Z,23.30
2018-12-29T01:20:58.630Z,22.87
2018-12-29T01:23:30.486Z,22.20
2018-12-29T01:26:02.482Z,23.45
2018-12-29T01:28:35.987Z,23.05
2018-12-29T01:31:07.873Z,22.82
2018-12-29T01:33:39.766Z,24.32
2018-12-29T01:36:11.726Z,21.60
2018-12-29T01:38:43.616Z,22.67
2018-12-29T01:41:15.476Z,23.10
2018-12-29T01:43:47.409Z,20.77
2018-12-29T01:46:19.266Z,22.67
2018-12-29T01:48:51.147Z,22.15
2018-12-29T01:51:23.036Z,20.37
2018-12-29T01:53:54.901Z,22.00
2018-12-29T01:56:26.815Z,21.68
2018-12-29T01:58:58.686Z,23.00
2018-12-29T02:01:30.555Z,23.98
2018-12-29T02:04:02.431Z,21.73
2018-12-29T02:06:34.311Z,22.22
2018-12-29T02:09:07.116Z,22.82
2018-12-29T02:11:39.037Z,21.70
2018-12-29T02:14:10.899Z,20.97
2018-12-29T02:16:42.814Z,20.72
2018-12-29T02:19:14.678Z,22.15
2018-12-29T02:21:46.562Z,20.77
2018-12-29T02:24:18.502Z,20.82
2018-12-29T02:26:50.345Z,22.20
2018-12-29T02:29:22.256Z,21.27
2018-12-29T02:31:55.394Z,23.95
2018-12-29T02:34:27.287Z,23.90
2018-12-29T02:36:59.222Z,21.48
2018-12-29T02:39:31.161Z,24.80
2018-12-29T02:42:03.039Z,24.15
2018-12-29T02:44:34.903Z,24.23
2018-12-29T02:47:06.781Z,22.98
2018-12-29T02:49:38.662Z,22.20
2018-12-29T02:52:10.530Z,21.75
2018-12-29T02:54:42.416Z,23.07
2018-12-29T02:57:14.308Z,24.65
2018-12-29T02:59:46.192Z,22.42
2018-12-29T03:02:18.088Z,22.82
2018-12-29T03:04:49.936Z,23.05
2018-12-29T03:07:21.881Z,22.20
2018-12-29T03:09:53.747Z,24.90
2018-12-29T03:12:25.629Z,25.45
2018-12-29T03:14:57.515Z,24.92
2018-12-29T03:17:29.406Z,24.37
2018-12-29T03:20:04.707Z,25.72
2018-12-29T03:22:36.587Z,24.20
2018-12-29T03:25:08.466Z,24.70
2018-12-29T03:27:41.953Z,23.65
2018-12-29T03:30:13.818Z,24.27
2018-12-29T03:32:45.691Z,22.98
2018-12-29T03:35:20.545Z,23.38
2018-12-29T03:37:52.422Z,22.50
2018-12-29T03:40:24.305Z,24.35
2018-12-29T03:42:57.459Z,24.40
2018-12-29T03:45:31.638Z,23.92
2018-12-29T03:48:03.518Z,24.82
2018-12-29T03:50:35.691Z,24.05
2018-12-29T03:53:07.580Z,23.80
2018-12-29T03:55:39.537Z,22.90
2018-12-29T03:58:12.586Z,23.30
2018-12-29T04:00:44.525Z,23.02
2018-12-29T04:03:16.412Z,25.43
2018-12-29T04:05:48.269Z,23.80
2018-12-29T04:08:20.172Z,25.60
2018-12-29T04:10:52.016Z,23.50
2018-12-29T04:13:23.955Z,23.32
2018-12-29T04:15:58.308Z,23.65
2018-12-29T04:18:29.403Z,23.00
2018-12-29T04:21:04.437Z,24.32
2018-12-29T04:23:36.342Z,23.87
2018-12-29T04:26:08.214Z,24.55
2018-12-29T04:28:40.101Z,24.10
2018-12-29T04:31:11.961Z,24.87
2018-12-29T04:33:43.931Z,24.37
2018-12-29T04:36:15.808Z,24.57
2018-12-29T04:38:47.934Z,25.85
2018-12-29T04:41:19.771Z,24.27
2018-12-29T04:43:51.640Z,24.67
2018-12-29T04:46:23.504Z,24.43
2018-12-29T04:48:55.384Z,24.15
2018-12-29T04:51:27.236Z,24.30
2018-12-29T04:53:59.367Z,24.30
2018-12-29T04:56:31.641Z,25.45
2018-12-29T04:59:03.491Z,24.65
2018-12-29T05:01:35.696Z,24.55
2018-12-29T05:04:07.560Z,24.70
2018-12-29T05:06:39.423Z,25.30
2018-12-29T05:09:11.316Z,23.62
2018-12-29T05:11:43.177Z,25.95
2018-12-29T05:14:16.426Z,23.75
2018-12-29T05:16:48.371Z,24.70
2018-12-29T05:19:20.244Z,24.00
2018-12-29T05:21:52.096Z,23.83
2018-12-29T05:24:24.007Z,24.92
2018-12-29T05:26:55.881Z,25.50
2018-12-29T05:29:27.757Z,25.27
2018-12-29T05:31:59.622Z,26.23
2018-12-29T05:34:31.514Z,26.25
2018-12-29T05:37:03.397Z,25.15
2018-12-29T05:39:36.618Z,24.60
2018-12-29T05:42:08.503Z,25.50
2018-12-29T05:44:40.392Z,28.17
2018-12-29T05:47:12.264Z,24.43
2018-12-29T05:49:44.129Z,24.50
2018-12-29T05:52:16.027Z,24.80
2018-12-29T05:54:47.888Z,26.52
2018-12-29T05:57:19.766Z,24.15
2018-12-29T06:00:01.071Z,24.95
2018-12-29T06:02:32.935Z,38.15
2018-12-29T06:05:04.941Z,34.35
2018-12-29T06:07:37.150Z,26.57
2018-12-29T06:10:09.032Z,26.30
2018-12-29T06:12:40.929Z,24.60
2018-12-29T06:15:12.778Z,26.00
2018-12-29T06:17:44.706Z,25.92
2018-12-29T06:20:17.978Z,26.73
2018-12-29T06:22:49.854Z,25.80
2018-12-29T06:25:21.716Z,24.18
2018-12-29T06:27:53.667Z,25.88
2018-12-29T06:30:25.541Z,25.08
2018-12-29T06:33:03.479Z,23.73
2018-12-29T06:35:36.465Z,23.22
2018-12-29T06:38:08.317Z,23.87
2018-12-29T06:40:40.180Z,26.07
2018-12-29T06:43:17.933Z,24.18
2018-12-29T06:45:49.825Z,24.87
2018-12-29T06:48:24.053Z,22.95
2018-12-29T06:51:07.933Z,26.17
2018-12-29T06:53:42.374Z,25.37
2018-12-29T06:56:17.362Z,24.65
2018-12-29T06:58:49.245Z,25.60
2018-12-29T07:01:24.197Z,25.43
2018-12-29T07:04:05.446Z,26.52
2018-12-29T07:06:40.021Z,25.55
2018-12-29T07:09:13.702Z,24.47
2018-12-29T07:11:45.625Z,26.23
2018-12-29T07:14:19.353Z,23.92
2018-12-29T07:16:51.165Z,24.55
2018-12-29T07:19:30.103Z,25.82
2018-12-29T07:22:05.009Z,25.00
2018-12-29T07:24:36.897Z,24.12
2018-12-29T07:27:08.746Z,25.15
2018-12-29T07:29:40.995Z,24.52
2018-12-29T07:32:14.493Z,26.02
2018-12-29T07:34:50.117Z,26.68
2018-12-29T07:37:25.416Z,23.67
2018-12-29T07:39:57.581Z,22.58
2018-12-29T07:42:34.097Z,22.20
2018-12-29T07:45:09.041Z,21.40
2018-12-29T07:47:45.485Z,24.05
2018-12-29T07:50:18.767Z,21.95
2018-12-29T07:52:50.676Z,24.30
2018-12-29T07:55:31.693Z,22.70
2018-12-29T07:58:03.576Z,23.12
2018-12-29T08:00:35.684Z,25.08
2018-12-29T08:03:10.049Z,23.20
2018-12-29T08:05:42.037Z,27.60
2018-12-29T08:08:19.735Z,24.50
2018-12-29T08:10:57.440Z,24.32
2018-12-29T08:13:29.329Z,26.00
2018-12-29T08:16:01.503Z,25.08
2018-12-29T08:18:33.404Z,24.70
2018-12-29T08:21:07.485Z,25.37
2018-12-29T08:23:39.373Z,24.05
2018-12-29T08:26:17.030Z,23.85
2018-12-29T08:28:51.934Z,25.20
2018-12-29T08:31:26.286Z,25.72
2018-12-29T08:33:59.673Z,25.82
2018-12-29T08:36:37.390Z,23.22
2018-12-29T08:39:12.458Z,24.87
2018-12-29T08:41:44.346Z,24.98
2018-12-29T08:44:17.290Z,24.77
2018-12-29T08:46:53.000Z,28.65
2018-12-29T08:49:26.368Z,25.88
2018-12-29T08:52:01.321Z,25.75
2018-12-29T08:54:34.378Z,23.77
2018-12-29T08:57:08.061Z,23.02
2018-12-29T08:59:44.601Z,24.47
2018-12-29T09:02:16.497Z,25.68
2018-12-29T09:04:48.393Z,24.90
2018-12-29T09:07:20.294Z,24.52
2018-12-29T09:09:52.228Z,25.75
2018-12-29T09:12:28.437Z,26.90
2018-12-29T09:15:03.144Z,26.17
2018-12-29T09:17:35.004Z,25.45
2018-12-29T09:20:07.312Z,24.82
2018-12-29T09:22:41.939Z,25.20
2018-12-29T09:25:17.163Z,25.10
2018-12-29T09:27:50.930Z,24.00
2018-12-29T09:30:23.859Z,25.82
2018-12-29T09:32:55.699Z,25.85
2018-12-29T09:35:34.477Z,26.27
2018-12-29T09:38:06.369Z,25.82
2018-12-29T09:40:38.235Z,23.87
2018-12-29T09:43:17.884Z,25.92
2018-12-29T09:45:49.760Z,25.50
2018-12-29T09:48:28.846Z,28.07
2018-12-29T09:51:03.625Z,30.72
2018-12-29T09:53:35.526Z,30.97
2018-12-29T09:56:07.417Z,27.00
2018-12-29T09:58:39.399Z,27.45
2018-12-29T10:01:13.621Z,28.90
2018-12-29T10:03:45.498Z,27.37
2018-12-29T10:06:17.403Z,27.62
2018-12-29T10:08:50.831Z,26.15
2018-12-29T10:11:22.695Z,26.37
2018-12-29T10:13:54.587Z,25.45
2018-12-29T10:16:28.250Z,26.25
2018-12-29T10:19:00.147Z,25.95
2018-12-29T10:21:32.005Z,26.17
2018-12-29T10:24:03.900Z,27.42
2018-12-29T10:26:35.757Z,26.97
2018-12-29T10:29:07.701Z,27.98
2018-12-29T10:31:39.563Z,26.33
2018-12-29T10:34:11.463Z,27.65
2018-12-29T10:36:43.310Z,26.97
2018-12-29T10:39:15.462Z,27.15
2018-12-29T10:41:47.340Z,27.75
2018-12-29T10:44:19.442Z,27.20
2018-12-29T10:46:51.330Z,28.67
2018-12-29T10:49:25.580Z,27.17
2018-12-29T10:52:00.483Z,28.70
2018-12-29T10:54:32.342Z,29.07
2018-12-29T10:57:04.204Z,27.35
2018-12-29T10:59:36.089Z,26.77
2018-12-29T11:02:08.996Z,25.80
2018-12-29T11:04:40.917Z,26.87
2018-12-29T11:07:12.800Z,25.90
2018-12-29T11:09:47.701Z,26.42
2018-12-29T11:12:19.595Z,27.73
2018-12-29T11:14:51.455Z,26.35
2018-12-29T11:17:23.335Z,27.75
2018-12-29T11:19:55.486Z,26.25
2018-12-29T11:22:27.389Z,25.65
2018-12-29T11:24:59.248Z,23.98
2018-12-29T11:27:31.155Z,27.17
2018-12-29T11:30:03.089Z,27.98
2018-12-29T11:32:41.006Z,25.48
2018-12-29T11:35:12.940Z,25.70
2018-12-29T11:37:51.014Z,27.62
2018-12-29T11:40:25.252Z,27.27
2018-12-29T11:43:00.110Z,28.20
2018-12-29T11:45:40.583Z,26.10
2018-12-29T11:48:20.032Z,25.55
2018-12-29T11:50:51.953Z,26.87
2018-12-29T11:53:24.134Z,28.42
2018-12-29T11:55:56.032Z,29.10
2018-12-29T11:58:31.591Z,27.00
2018-12-29T12:01:04.555Z,27.42
2018-12-29T12:03:38.737Z,26.80
2018-12-29T12:06:12.460Z,27.13
2018-12-29T12:08:44.368Z,27.32
2018-12-29T12:11:18.597Z,26.07
2018-12-29T12:13:50.538Z,26.75
2018-12-29T12:16:26.964Z,28.65
2018-12-29T12:18:57.430Z,26.85
2018-12-29T12:21:33.478Z,27.50
2018-12-29T12:24:05.387Z,27.10
2018-12-29T12:26:37.310Z,28.62
2018-12-29T12:29:09.189Z,28.27
2018-12-29T12:31:43.963Z,28.10
2018-12-29T12:34:15.893Z,28.15
2018-12-29T12:36:53.291Z,27.55
2018-12-29T12:39:25.176Z,27.98
2018-12-29T12:41:57.089Z,27.67
2018-12-29T12:44:32.113Z,29.05
2018-12-29T12:47:06.885Z,26.48
2018-12-29T12:49:43.600Z,26.25
2018-12-29T12:52:17.609Z,26.35
2018-12-29T12:54:51.360Z,24.12
2018-12-29T12:57:28.265Z,25.15
2018-12-29T13:00:03.287Z,24.80
2018-12-29T13:02:42.447Z,23.73
2018-12-29T13:05:16.028Z,23.80
2018-12-29T13:07:47.954Z,23.95
2018-12-29T13:10:20.053Z,25.32
2018-12-29T13:12:51.987Z,25.32
2018-12-29T13:15:23.881Z,24.25
2018-12-29T13:17:59.008Z,24.95
2018-12-29T13:20:34.249Z,25.27
2018-12-29T13:23:12.856Z,25.68
2018-12-29T13:25:47.929Z,24.60
2018-12-29T13:28:19.852Z,24.75
2018-12-29T13:30:54.778Z,25.50
2018-12-29T13:33:30.867Z,26.17
2018-12-29T13:36:02.776Z,26.48
2018-12-29T13:38:34.890Z,27.50
2018-12-29T13:41:06.788Z,26.30
2018-12-29T13:43:41.686Z,26.33
2018-12-29T13:46:15.909Z,26.77
2018-12-29T13:48:48.060Z,26.93
2018-12-29T13:51:24.068Z,27.48
2018-12-29T13:53:55.997Z,27.75
2018-12-29T13:56:30.008Z,27.42
2018-12-29T13:59:04.262Z,27.27
2018-12-29T14:01:37.784Z,26.23
2018-12-29T14:04:09.713Z,28.60
2018-12-29T14:06:41.600Z,26.90
2018-12-29T14:09:13.477Z,26.00
2018-12-29T14:11:47.295Z,26.40
2018-12-29T14:14:23.290Z,27.05
2018-12-29T14:17:01.371Z,27.95
2018-12-29T14:19:33.251Z,28.27
2018-12-29T14:22:05.128Z,28.02
2018-12-29T14:24:38.739Z,28.77
2018-12-29T14:27:10.679Z,27.00
2018-12-29T14:29:46.742Z,27.67
2018-12-29T14:32:18.646Z,27.85
2018-12-29T14:34:57.745Z,27.02
2018-12-29T14:37:32.390Z,26.45
2018-12-29T14:40:04.281Z,27.62
2018-12-29T14:42:39.563Z,26.20
2018-12-29T14:45:11.491Z,26.68
2018-12-29T14:47:49.491Z,25.92
2018-12-29T14:50:21.671Z,26.37
2018-12-29T14:52:53.884Z,26.02
2018-12-29T14:55:25.726Z,26.13
2018-12-29T14:58:00.786Z,27.32
2018-12-29T15:00:34.652Z,26.85
2018-12-29T15:03:12.816Z,25.27
2018-12-29T15:05:47.376Z,25.90
2018-12-29T15:08:22.867Z,25.02
2018-12-29T15:10:54.790Z,26.37
2018-12-29T15:13:30.359Z,24.92
2018-12-29T15:16:02.260Z,25.72
2018-12-29T15:18:34.176Z,24.75
2018-12-29T15:21:06.422Z,26.10
2018-12-29T15:23:39.425Z,27.25
2018-12-29T15:26:13.650Z,26.60
2018-12-29T15:28:49.585Z,25.85
2018-12-29T15:31:21.511Z,25.55
2018-12-29T15:33:53.403Z,27.10
2018-12-29T15:36:27.083Z,26.20
2018-12-29T15:39:00.255Z,27.20
2018-12-29T15:41:35.741Z,25.92
2018-12-29T15:44:12.804Z,25.68
2018-12-29T15:46:52.324Z,24.35
2018-12-29T15:49:25.749Z,24.80
2018-12-29T15:51:57.666Z,24.90
2018-12-29T15:54:31.050Z,24.65
2018-12-29T15:57:06.342Z,25.75
2018-12-29T15:59:38.244Z,25.25
2018-12-29T16:02:12.261Z,24.43
2018-12-29T16:04:45.715Z,24.67
2018-12-29T16:07:17.730Z,25.05
2018-12-29T16:09:51.398Z,25.62
2018-12-29T16:12:23.308Z,25.57
2018-12-29T16:14:55.190Z,26.95
2018-12-29T16:17:27.118Z,29.18
2018-12-29T16:20:01.071Z,29.75
2018-12-29T16:22:33.277Z,28.80
2018-12-29T16:25:05.231Z,29.60
2018-12-29T16:27:37.145Z,29.07
2018-12-29T16:30:12.096Z,28.65
2018-12-29T16:32:46.826Z,26.27
2018-12-29T16:35:20.490Z,27.00
2018-12-29T16:37:52.393Z,26.97
2018-12-29T16:40:24.297Z,27.82
2018-12-29T16:43:00.073Z,27.95
2018-12-29T16:45:32.280Z,26.80
2018-12-29T16:48:07.228Z,27.98
2018-12-29T16:50:44.492Z,29.18
2018-12-29T16:53:14.072Z,28.42
2018-12-29T16:55:47.609Z,28.70
2018-12-29T16:58:21.971Z,28.92
2018-12-29T17:00:54.254Z,28.55
2018-12-29T17:03:29.167Z,28.98
2018-12-29T17:06:02.439Z,31.87
2018-12-29T17:08:34.475Z,29.98
2018-12-29T17:11:06.370Z,29.12
2018-12-29T17:13:38.550Z,28.20
2018-12-29T17:16:12.736Z,25.90
2018-12-29T17:18:44.699Z,26.55
2018-12-29T17:21:17.003Z,26.30
2018-12-29T17:23:48.902Z,27.30
2018-12-29T17:26:22.888Z,27.52
2018-12-29T17:28:54.817Z,24.75
2018-12-29T17:31:27.051Z,25.68
2018-12-29T17:33:58.993Z,24.90
2018-12-29T17:36:30.926Z,26.23
2018-12-29T17:39:02.987Z,26.25
2018-12-29T17:41:36.957Z,28.38
2018-12-29T17:44:08.803Z,27.48
2018-12-29T17:46:40.719Z,27.67
2018-12-29T17:49:12.947Z,27.73
2018-12-29T17:51:44.820Z,29.87
2018-12-29T17:54:16.753Z,29.32
2018-12-29T17:56:48.668Z,28.20
2018-12-29T17:59:20.544Z,29.20
2018-12-29T18:01:52.720Z,29.12
2018-12-29T18:04:24.698Z,30.57
2018-12-29T18:06:56.566Z,28.32
2018-12-29T18:09:28.714Z,29.48
2018-12-29T18:12:00.752Z,26.73
2018-12-29T18:14:33.970Z,29.67
2018-12-29T18:17:05.850Z,27.82
2018-12-29T18:19:38.148Z,27.22
2018-12-29T18:22:10.310Z,27.93
2018-12-29T18:24:44.501Z,25.48
2018-12-29T18:27:18.154Z,28.52
2018-12-29T18:29:50.182Z,25.90
2018-12-29T18:32:22.101Z,25.40
2018-12-29T18:34:55.162Z,26.68
2018-12-29T18:37:27.378Z,26.23
2018-12-29T18:40:08.791Z,25.60
2018-12-29T18:42:43.482Z,25.70
2018-12-29T18:45:19.464Z,26.15
2018-12-29T18:47:53.004Z,26.23
2018-12-29T18:50:26.188Z,27.00
2018-12-29T18:53:01.661Z,26.50
2018-12-29T18:55:33.599Z,26.68
2018-12-29T18:58:08.742Z,24.70
2018-12-29T19:00:39.145Z,24.25
2018-12-29T19:03:12.515Z,23.90
2018-12-29T19:05:45.706Z,24.05
2018-12-29T19:08:17.613Z,22.55
2018-12-29T19:10:49.537Z,24.32
2018-12-29T19:13:21.813Z,26.68
2018-12-29T19:15:55.613Z,24.43
2018-12-29T19:18:30.263Z,23.92
2018-12-29T19:21:03.291Z,22.42
2018-12-29T19:23:35.574Z,23.30
2018-12-29T19:26:07.998Z,24.05
2018-12-29T19:28:42.999Z,26.35
2018-12-29T19:31:15.672Z,24.05
2018-12-29T19:33:47.666Z,24.47
2018-12-29T19:36:21.667Z,24.15
2018-12-29T19:38:55.585Z,24.00
2018-12-29T19:41:33.231Z,23.85
2018-12-29T19:44:09.326Z,23.67
2018-12-29T19:46:44.328Z,24.45
2018-12-29T19:49:25.663Z,24.18
2018-12-29T19:52:00.480Z,23.85
2018-12-29T19:54:40.942Z,23.73
2018-12-29T19:57:13.164Z,22.60
2018-12-29T19:59:48.572Z,20.95
2018-12-29T20:02:23.616Z,21.73
2018-12-29T20:05:00.430Z,22.95
2018-12-29T20:07:35.185Z,22.15
2018-12-29T20:10:45.213Z,21.55
2018-12-29T20:13:18.968Z,20.60
2018-12-29T20:15:50.906Z,20.17
2018-12-29T20:18:24.403Z,20.20
2018-12-29T20:20:57.929Z,20.70
2018-12-29T20:23:31.482Z,21.23
2018-12-29T20:26:03.700Z,20.10
2018-12-29T20:28:35.636Z,22.13
2018-12-29T20:31:08.626Z,19.87
2018-12-29T20:33:43.192Z,20.17
2018-12-29T20:36:16.721Z,20.80
2018-12-29T20:38:49.033Z,19.90
2018-12-29T20:41:21.292Z,18.80
2018-12-29T20:43:54.514Z,18.10
2018-12-29T20:46:29.208Z,18.27
2018-12-29T20:49:01.113Z,15.98
2018-12-29T20:51:33.305Z,17.60
2018-12-29T20:54:05.209Z,17.87
2018-12-29T20:56:37.151Z,18.42
2018-12-29T20:59:11.812Z,17.75
2018-12-29T21:01:48.610Z,17.07
2018-12-29T21:04:22.284Z,18.65
2018-12-29T21:06:54.226Z,18.02
2018-12-29T21:09:26.153Z,15.32
2018-12-29T21:11:58.190Z,16.10
2018-12-29T21:14:34.126Z,29.12
2018-12-29T21:17:06.089Z,15.65
2018-12-29T21:19:43.380Z,17.77
2018-12-29T21:22:15.622Z,16.77
2018-12-29T21:24:50.313Z,16.00
2018-12-29T21:27:26.069Z,18.15
2018-12-29T21:30:02.707Z,16.48
2018-12-29T21:32:34.332Z,15.80
2018-12-29T21:35:09.667Z,14.75
2018-12-29T21:37:41.367Z,14.70
2018-12-29T21:40:13.315Z,15.03
2018-12-29T21:42:45.506Z,15.85
2018-12-29T21:45:19.510Z,15.18
2018-12-29T21:47:51.426Z,14.95
2018-12-29T21:50:25.411Z,15.30
2018-12-29T21:53:00.057Z,14.83
2018-12-29T21:55:34.974Z,16.12
2018-12-29T21:58:08.331Z,15.80
2018-12-29T22:00:41.389Z,17.30
2018-12-29T22:03:15.688Z,16.42
2018-12-29T22:05:50.365Z,15.93
2018-12-29T22:08:28.695Z,18.50
2018-12-29T22:11:03.762Z,16.40
2018-12-29T22:13:42.597Z,16.40
2018-12-29T22:16:17.567Z,16.48
2018-12-29T22:18:52.328Z,17.20
2018-12-29T22:21:31.008Z,15.75
2018-12-29T22:24:02.956Z,17.17
2018-12-29T22:26:34.929Z,22.65
2018-12-29T22:29:08.458Z,16.90
2018-12-29T22:31:40.355Z,14.15
2018-12-29T22:34:15.911Z,13.80
2018-12-29T22:36:51.013Z,15.48
2018-12-29T22:39:24.704Z,11.43
2018-12-29T22:41:56.598Z,10.13
2018-12-29T22:44:28.529Z,11.05
2018-12-29T22:47:02.471Z,9.03
2018-12-29T22:49:37.174Z,7.15
2018-12-29T22:52:09.079Z,7.10
2018-12-29T22:54:41.047Z,6.47
2018-12-29T22:57:15.263Z,6.22
2018-12-29T22:59:51.150Z,5.83
2018-12-29T23:02:22.955Z,6.15
2018-12-29T23:04:57.723Z,5.80
2018-12-29T23:07:29.638Z,5.80
2018-12-29T23:10:04.559Z,5.78
2018-12-29T23:12:39.504Z,5.90
2018-12-29T23:15:13.366Z,6.05
2018-12-29T23:17:45.237Z,6.17
2018-12-29T23:20:17.185Z,5.75
2018-12-29T23:22:51.489Z,5.62
2018-12-29T23:25:23.366Z,5.95
2018-12-29T23:27:57.359Z,6.10
2018-12-29T23:30:30.217Z,5.87
2018-12-29T23:33:06.127Z,6.15
2018-12-29T23:35:40.386Z,6.20
2018-12-29T23:38:12.604Z,6.08
2018-12-29T23:40:46.193Z,6.80
2018-12-29T23:43:18.331Z,6.58
2018-12-29T23:45:50.209Z,7.12
2018-12-29T23:48:22.450Z,6.83
2018-12-29T23:51:05.182Z,7.12
2018-12-29T23:53:29.965Z,7.45
2018-12-29T23:56:03.216Z,7.45
2018-12-29T23:58:35.423Z,7.97
